createdAt,value
2023-05-18T00:01:04.023Z,7.08
2023-05-18T00:03:37.012Z,7.10
2023-05-18T00:06:08.241Z,7.04
2023-05-18T00:08:38.777Z,7.10
2023-05-18T00:11:11.839Z,7.12
2023-05-18T00:13:42.079Z,7.14
2023-05-18T00:16:16.188Z,7.10
2023-05-18T00:18:46.467Z,7.02
2023-05-18T00:21:16.691Z,7.02
2023-05-18T00:23:49.759Z,6.98
2023-05-18T00:26:25.197Z,7.03
2023-05-18T00:28:58.765Z,7.06
2023-05-18T00:31:29.425Z,7.05
2023-05-18T00:34:08.756Z,7.11
2023-05-18T00:36:56.745Z,7.13
2023-05-18T00:39:37.547Z,6.48
2023-05-18T00:42:10.715Z,7.09
2023-05-18T00:44:40.814Z,6.39
2023-05-18T00:47:23.631Z,7.09
2023-05-18T00:49:56.430Z,7.06
2023-05-18T00:52:33.032Z,6.59
2023-05-18T00:55:04.620Z,6.90
2023-05-18T00:57:38.515Z,6.94
2023-05-18T01:00:11.064Z,6.91
2023-05-18T01:02:43.190Z,6.87
2023-05-18T01:05:22.512Z,6.84
2023-05-18T01:07:53.393Z,6.84
2023-05-18T01:10:23.699Z,6.83
2023-05-18T01:13:00.754Z,6.82
2023-05-18T01:15:35.353Z,6.77
2023-05-18T01:18:15.431Z,6.74
2023-05-18T01:20:50.318Z,6.76
2023-05-18T01:23:56.802Z,6.73
2023-05-18T01:26:33.159Z,6.52
2023-05-18T01:29:08.169Z,6.66
2023-05-18T01:31:40.093Z,6.67
2023-05-18T01:34:10.170Z,6.64
2023-05-18T01:36:42.243Z,6.64
2023-05-18T01:39:13.168Z,6.64
2023-05-18T01:41:52.700Z,6.61
2023-05-18T01:44:29.922Z,6.61
2023-05-18T01:47:03.640Z,6.52
2023-05-18T01:49:42.309Z,6.49
2023-05-18T01:52:25.036Z,6.56
2023-05-18T01:54:58.169Z,6.54
2023-05-18T01:57:34.164Z,6.54
2023-05-18T02:00:08.174Z,6.42
2023-05-18T02:02:48.497Z,6.50
2023-05-18T02:05:27.354Z,6.49
2023-05-18T02:07:58.417Z,6.44
2023-05-18T02:10:30.106Z,6.38
2023-05-18T02:13:03.098Z,6.41
2023-05-18T02:15:48.239Z,6.44
2023-05-18T02:18:31.235Z,6.43
2023-05-18T02:21:11.594Z,6.39
2023-05-18T02:23:43.604Z,6.35
2023-05-18T02:26:14.197Z,6.22
2023-05-18T02:28:49.739Z,6.33
2023-05-18T02:31:19.944Z,6.16
2023-05-18T02:33:50.111Z,6.27
2023-05-18T02:36:22.777Z,6.18
2023-05-18T02:38:53.196Z,6.26
2023-05-18T02:41:24.248Z,6.21
2023-05-18T02:43:57.070Z,6.16
2023-05-18T02:46:27.756Z,6.21
2023-05-18T02:49:07.197Z,6.17
2023-05-18T02:51:39.157Z,6.20
2023-05-18T02:54:10.070Z,6.19
2023-05-18T02:56:45.113Z,6.17
2023-05-18T02:59:37.757Z,6.20
2023-05-18T03:02:09.739Z,5.98
2023-05-18T03:04:40.344Z,6.13
2023-05-18T03:07:10.710Z,6.10
2023-05-18T03:09:41.067Z,6.10
2023-05-18T03:12:12.033Z,6.10
2023-05-18T03:14:44.901Z,6.12
2023-05-18T03:17:15.220Z,6.07
2023-05-18T03:19:51.567Z,6.14
2023-05-18T03:22:24.161Z,6.12
2023-05-18T03:24:55.809Z,5.99
2023-05-18T03:27:32.388Z,6.11
2023-05-18T03:30:05.252Z,5.97
2023-05-18T03:32:37.349Z,6.01
2023-05-18T03:35:08.562Z,5.98
2023-05-18T03:37:42.538Z,5.91
2023-05-18T03:40:15.848Z,5.86
2023-05-18T03:42:47.837Z,5.85
2023-05-18T03:45:21.283Z,5.71
2023-05-18T03:47:51.607Z,5.84
2023-05-18T03:50:29.571Z,5.86
2023-05-18T03:53:01.437Z,5.90
2023-05-18T03:55:33.110Z,5.91
2023-05-18T03:58:05.029Z,5.93
2023-05-18T04:00:38.006Z,6.03
2023-05-18T04:03:08.155Z,6.04
2023-05-18T04:05:38.995Z,6.05
2023-05-18T04:08:09.100Z,6.24
2023-05-18T04:10:41.083Z,6.21
2023-05-18T04:13:11.440Z,6.22
2023-05-18T04:15:46.062Z,6.35
2023-05-18T04:18:22.398Z,6.29
2023-05-18T04:20:53.006Z,6.33
2023-05-18T04:23:23.474Z,6.48
2023-05-18T04:25:56.509Z,6.59
2023-05-18T04:28:30.607Z,6.69
2023-05-18T04:31:07.012Z,6.81
2023-05-18T04:33:46.787Z,6.92
2023-05-18T04:36:21.260Z,6.98
2023-05-18T04:38:52.290Z,7.08
2023-05-18T04:41:23.417Z,7.15
2023-05-18T04:43:56.393Z,7.15
2023-05-18T04:46:29.744Z,7.05
2023-05-18T04:49:03.849Z,7.02
2023-05-18T04:51:39.855Z,6.94
2023-05-18T04:54:16.385Z,6.73
2023-05-18T04:56:47.510Z,6.90
2023-05-18T04:59:17.751Z,6.91
2023-05-18T05:01:53.521Z,7.21
2023-05-18T05:04:24.934Z,8.85
2023-05-18T05:06:55.197Z,10.23
2023-05-18T05:09:29.103Z,11.04
2023-05-18T05:12:10.042Z,11.74
2023-05-18T05:14:43.227Z,12.43
2023-05-18T05:17:17.746Z,13.26
2023-05-18T05:19:47.862Z,13.90
2023-05-18T05:22:18.533Z,13.91
2023-05-18T05:24:48.815Z,14.50
2023-05-18T05:27:19.082Z,14.81
2023-05-18T05:29:50.871Z,15.06
2023-05-18T05:32:23.688Z,14.96
2023-05-18T05:34:56.474Z,14.93
2023-05-18T05:37:27.320Z,15.36
2023-05-18T05:39:57.671Z,15.82
2023-05-18T05:42:27.865Z,15.77
2023-05-18T05:44:58.170Z,16.31
2023-05-18T05:47:32.540Z,16.94
2023-05-18T05:50:04.483Z,17.17
2023-05-18T05:52:34.690Z,17.33
2023-05-18T05:55:10.906Z,17.86
2023-05-18T05:57:42.941Z,17.57
2023-05-18T06:00:15.708Z,16.96
2023-05-18T06:02:53.990Z,16.28
2023-05-18T06:05:36.123Z,15.94
2023-05-18T06:08:09.412Z,15.84
2023-05-18T06:10:40.878Z,15.40
2023-05-18T06:13:12.142Z,14.70
2023-05-18T06:16:03.440Z,13.99
2023-05-18T06:18:40.311Z,13.56
2023-05-18T06:21:12.500Z,13.30
2023-05-18T06:23:43.231Z,13.36
2023-05-18T06:26:32.239Z,12.91
2023-05-18T06:29:32.198Z,13.44
2023-05-18T06:32:15.929Z,13.56
2023-05-18T06:34:55.229Z,12.46
2023-05-18T06:37:26.609Z,11.62
2023-05-18T06:40:02.714Z,11.57
2023-05-18T06:42:33.995Z,11.63
2023-05-18T06:45:23.227Z,11.88
2023-05-18T06:47:56.767Z,11.64
2023-05-18T06:50:32.213Z,11.42
2023-05-18T06:53:04.869Z,11.34
2023-05-18T06:55:38.005Z,11.52
2023-05-18T06:58:08.235Z,11.47
2023-05-18T07:00:38.713Z,11.58
2023-05-18T07:03:11.647Z,11.57
2023-05-18T07:05:44.370Z,11.49
2023-05-18T07:08:17.570Z,11.34
2023-05-18T07:10:48.676Z,11.19
2023-05-18T07:13:21.713Z,11.05
2023-05-18T07:15:51.939Z,10.85
2023-05-18T07:18:22.732Z,10.65
2023-05-18T07:20:55.584Z,10.74
2023-05-18T07:23:25.680Z,11.12
2023-05-18T07:25:55.849Z,11.11
2023-05-18T07:28:26.221Z,11.06
2023-05-18T07:30:59.977Z,11.23
2023-05-18T07:33:30.143Z,11.30
2023-05-18T07:36:05.128Z,11.14
2023-05-18T07:38:36.031Z,11.00
2023-05-18T07:41:07.181Z,11.03
2023-05-18T07:43:44.741Z,11.12
2023-05-18T07:46:18.812Z,11.16
2023-05-18T07:49:10.242Z,11.19
2023-05-18T07:51:44.558Z,11.04
2023-05-18T07:54:16.138Z,10.98
2023-05-18T07:56:47.061Z,11.02
2023-05-18T07:59:17.410Z,11.21
2023-05-18T08:01:49.414Z,11.22
2023-05-18T08:04:19.767Z,11.47
2023-05-18T08:06:56.409Z,11.37
2023-05-18T08:09:26.912Z,11.64
2023-05-18T08:11:57.753Z,11.90
2023-05-18T08:14:28.057Z,12.05
2023-05-18T08:16:58.667Z,12.09
2023-05-18T08:19:29.610Z,12.28
2023-05-18T08:22:02.468Z,11.82
2023-05-18T08:24:33.420Z,12.16
2023-05-18T08:27:08.572Z,12.22
2023-05-18T08:29:39.294Z,12.39
2023-05-18T08:32:12.681Z,12.33
2023-05-18T08:34:43.932Z,12.44
2023-05-18T08:37:16.772Z,12.44
2023-05-18T08:39:49.689Z,12.48
2023-05-18T08:42:29.518Z,12.64
2023-05-18T08:45:13.985Z,13.00
2023-05-18T08:47:47.194Z,12.82
2023-05-18T08:50:26.779Z,12.66
2023-05-18T08:53:04.669Z,12.56
2023-05-18T08:55:37.513Z,12.50
2023-05-18T08:58:12.263Z,12.67
2023-05-18T09:00:45.840Z,12.93
2023-05-18T09:03:17.110Z,12.98
2023-05-18T09:05:48.916Z,12.90
2023-05-18T09:08:22.784Z,12.94
2023-05-18T09:10:54.716Z,13.09
2023-05-18T09:13:27.201Z,12.86
2023-05-18T09:15:57.693Z,13.01
2023-05-18T09:18:28.617Z,12.91
2023-05-18T09:20:59.107Z,12.97
2023-05-18T09:23:32.101Z,13.09
2023-05-18T09:26:02.349Z,13.14
2023-05-18T09:28:36.211Z,12.97
2023-05-18T09:31:08.015Z,13.18
2023-05-18T09:33:39.971Z,13.35
2023-05-18T09:36:12.454Z,13.36
2023-05-18T09:38:47.419Z,13.18
2023-05-18T09:41:19.466Z,13.30
2023-05-18T09:43:51.655Z,13.07
2023-05-18T09:46:23.089Z,13.18
2023-05-18T09:48:55.597Z,13.42
2023-05-18T09:51:25.895Z,13.50
2023-05-18T09:54:05.280Z,13.64
2023-05-18T09:56:39.046Z,13.65
2023-05-18T09:59:13.720Z,13.43
2023-05-18T10:02:01.256Z,13.69
2023-05-18T10:04:41.869Z,13.71
2023-05-18T10:07:14.796Z,13.29
2023-05-18T10:09:49.146Z,13.35
2023-05-18T10:12:20.063Z,13.34
2023-05-18T10:14:50.254Z,13.39
2023-05-18T10:17:20.611Z,13.64
2023-05-18T10:19:55.579Z,13.65
2023-05-18T10:22:27.171Z,13.99
2023-05-18T10:25:04.045Z,14.33
2023-05-18T10:27:38.290Z,14.24
2023-05-18T10:30:11.211Z,14.57
2023-05-18T10:32:42.701Z,14.36
2023-05-18T10:35:14.577Z,14.25
2023-05-18T10:37:49.527Z,14.16
2023-05-18T10:40:24.512Z,14.04
2023-05-18T10:42:56.544Z,13.89
2023-05-18T10:45:27.668Z,13.85
2023-05-18T10:48:00.324Z,13.82
2023-05-18T10:50:44.882Z,14.18
2023-05-18T10:53:17.168Z,14.49
2023-05-18T10:55:50.431Z,14.55
2023-05-18T10:58:23.240Z,14.64
2023-05-18T11:00:55.716Z,14.91
2023-05-18T11:03:27.456Z,14.71
2023-05-18T11:06:09.034Z,14.92
2023-05-18T11:08:46.832Z,15.08
2023-05-18T11:11:20.033Z,15.23
2023-05-18T11:13:52.390Z,15.22
2023-05-18T11:16:23.482Z,15.16
2023-05-18T11:18:55.292Z,15.09
2023-05-18T11:21:54.975Z,14.90
2023-05-18T11:24:32.847Z,15.18
2023-05-18T11:27:19.746Z,15.32
2023-05-18T11:29:55.356Z,15.40
2023-05-18T11:32:34.515Z,15.49
2023-05-18T11:35:08.962Z,15.87
2023-05-18T11:37:52.196Z,15.81
2023-05-18T11:40:52.868Z,16.06
2023-05-18T11:43:27.937Z,15.85
2023-05-18T11:46:00.439Z,15.45
2023-05-18T11:48:35.020Z,15.39
2023-05-18T11:51:09.531Z,15.28
2023-05-18T11:53:42.201Z,15.23
2023-05-18T11:56:14.687Z,15.36
2023-05-18T11:58:50.158Z,15.74
2023-05-18T12:01:23.839Z,15.94
2023-05-18T12:03:54.093Z,15.72
2023-05-18T12:06:24.292Z,15.73
2023-05-18T12:08:54.444Z,15.76
2023-05-18T12:11:25.108Z,15.71
2023-05-18T12:13:58.839Z,15.68
2023-05-18T12:16:36.997Z,15.66
2023-05-18T12:19:07.506Z,15.81
2023-05-18T12:21:40.796Z,15.65
2023-05-18T12:24:11.917Z,15.83
2023-05-18T12:26:46.803Z,15.90
2023-05-18T12:29:20.720Z,15.76
2023-05-18T12:31:54.700Z,15.93
2023-05-18T12:34:25.033Z,16.11
2023-05-18T12:36:56.971Z,16.42
2023-05-18T12:39:30.503Z,16.19
2023-05-18T12:42:17.543Z,16.17
2023-05-18T12:44:51.026Z,16.43
2023-05-18T12:47:23.830Z,16.86
2023-05-18T12:49:54.192Z,17.10
2023-05-18T12:52:24.616Z,16.80
2023-05-18T12:55:00.155Z,16.45
2023-05-18T12:57:31.330Z,15.98
2023-05-18T13:00:11.609Z,15.93
2023-05-18T13:02:42.089Z,16.16
2023-05-18T13:05:14.212Z,16.15
2023-05-18T13:07:46.513Z,16.42
2023-05-18T13:10:19.991Z,16.47
2023-05-18T13:12:51.710Z,16.29
2023-05-18T13:15:26.517Z,16.11
2023-05-18T13:18:00.965Z,16.05
2023-05-18T13:20:36.727Z,15.99
2023-05-18T13:23:11.429Z,16.09
2023-05-18T13:25:41.970Z,16.39
2023-05-18T13:28:13.926Z,16.58
2023-05-18T13:30:50.872Z,16.47
2023-05-18T13:33:21.734Z,16.39
2023-05-18T13:35:52.517Z,16.45
2023-05-18T13:38:22.717Z,16.51
2023-05-18T13:40:52.793Z,16.17
2023-05-18T13:43:22.858Z,16.08
2023-05-18T13:45:55.557Z,16.36
2023-05-18T13:48:28.284Z,16.59
2023-05-18T13:50:58.680Z,16.86
2023-05-18T13:53:29.486Z,17.08
2023-05-18T13:56:02.300Z,16.99
2023-05-18T13:58:36.237Z,17.08
2023-05-18T14:01:10.663Z,17.16
2023-05-18T14:03:43.629Z,17.33
2023-05-18T14:06:13.945Z,17.27
2023-05-18T14:08:43.984Z,17.17
2023-05-18T14:11:13.974Z,17.13
2023-05-18T14:13:44.094Z,16.87
2023-05-18T14:16:16.787Z,16.83
2023-05-18T14:18:46.942Z,16.84
2023-05-18T14:21:18.435Z,16.90
2023-05-18T14:23:53.054Z,16.91
2023-05-18T14:26:23.603Z,17.21
2023-05-18T14:28:53.619Z,17.24
2023-05-18T14:31:26.449Z,16.94
2023-05-18T14:33:56.561Z,16.69
2023-05-18T14:36:34.421Z,16.46
2023-05-18T14:39:07.027Z,16.51
2023-05-18T14:41:39.526Z,16.65
2023-05-18T14:44:10.793Z,16.55
2023-05-18T14:46:43.976Z,16.37
2023-05-18T14:49:21.259Z,16.18
2023-05-18T14:51:51.411Z,16.01
2023-05-18T14:54:22.558Z,16.02
2023-05-18T14:56:52.723Z,16.05
2023-05-18T14:59:23.903Z,16.01
2023-05-18T15:01:58.689Z,16.15
2023-05-18T15:04:32.725Z,16.17
2023-05-18T15:07:05.876Z,16.34
2023-05-18T15:09:37.695Z,16.40
2023-05-18T15:12:08.770Z,16.58
2023-05-18T15:14:51.811Z,16.51
2023-05-18T15:17:24.438Z,16.61
2023-05-18T15:20:06.652Z,16.71
2023-05-18T15:22:38.613Z,16.81
2023-05-18T15:25:11.480Z,16.61
2023-05-18T15:27:42.743Z,16.38
2023-05-18T15:30:14.108Z,16.45
2023-05-18T15:32:47.355Z,16.53
2023-05-18T15:35:21.580Z,16.58
2023-05-18T15:37:53.122Z,16.58
2023-05-18T15:40:23.320Z,16.46
2023-05-18T15:42:53.313Z,16.39
2023-05-18T15:45:23.480Z,16.40
2023-05-18T15:47:56.115Z,16.61
2023-05-18T15:50:26.943Z,16.72
2023-05-18T15:53:00.077Z,16.75
2023-05-18T15:55:30.182Z,16.66
2023-05-18T15:58:00.471Z,16.63
2023-05-18T16:00:39.219Z,17.04
2023-05-18T16:03:12.783Z,16.94
2023-05-18T16:05:43.164Z,16.97
2023-05-18T16:08:13.204Z,16.96
2023-05-18T16:10:43.556Z,17.29
2023-05-18T16:13:13.750Z,17.33
2023-05-18T16:15:51.254Z,17.44
2023-05-18T16:18:24.256Z,17.38
2023-05-18T16:20:54.585Z,17.22
2023-05-18T16:23:24.659Z,16.97
2023-05-18T16:25:55.625Z,16.92
2023-05-18T16:28:25.862Z,16.94
2023-05-18T16:30:55.905Z,16.98
2023-05-18T16:33:33.014Z,16.96
2023-05-18T16:36:05.329Z,16.88
2023-05-18T16:38:37.606Z,16.86
2023-05-18T16:41:09.266Z,16.77
2023-05-18T16:43:39.698Z,16.64
2023-05-18T16:46:10.229Z,16.51
2023-05-18T16:48:43.200Z,16.36
2023-05-18T16:51:13.476Z,16.15
2023-05-18T16:53:44.095Z,16.02
2023-05-18T16:56:14.212Z,16.14
2023-05-18T16:58:55.387Z,16.25
2023-05-18T17:01:28.950Z,16.27
2023-05-18T17:04:02.362Z,16.34
2023-05-18T17:06:34.724Z,16.21
2023-05-18T17:09:07.872Z,16.20
2023-05-18T17:11:37.984Z,16.28
2023-05-18T17:14:08.065Z,16.24
2023-05-18T17:16:43.486Z,16.29
2023-05-18T17:19:16.534Z,16.28
2023-05-18T17:21:51.081Z,16.23
2023-05-18T17:24:21.195Z,16.27
2023-05-18T17:26:51.821Z,16.26
2023-05-18T17:29:22.472Z,16.21
2023-05-18T17:31:53.772Z,16.17
2023-05-18T17:34:26.886Z,16.14
2023-05-18T17:37:00.864Z,16.06
2023-05-18T17:39:32.828Z,16.06
2023-05-18T17:42:07.299Z,15.95
2023-05-18T17:44:37.358Z,15.94
2023-05-18T17:47:10.732Z,15.92
2023-05-18T17:49:44.171Z,16.01
2023-05-18T17:52:20.669Z,15.93
2023-05-18T17:54:52.667Z,15.87
2023-05-18T17:57:23.177Z,15.88
2023-05-18T17:59:53.600Z,15.87
2023-05-18T18:02:23.957Z,15.77
2023-05-18T18:04:57.066Z,15.86
2023-05-18T18:07:27.274Z,15.76
2023-05-18T18:09:57.797Z,15.85
2023-05-18T18:12:27.984Z,15.79
2023-05-18T18:14:58.161Z,15.73
2023-05-18T18:17:29.201Z,15.68
2023-05-18T18:20:02.135Z,15.63
2023-05-18T18:22:35.722Z,15.58
2023-05-18T18:25:06.734Z,15.55
2023-05-18T18:27:36.951Z,15.43
2023-05-18T18:30:07.767Z,15.49
2023-05-18T18:32:37.992Z,15.37
2023-05-18T18:35:11.694Z,15.28
2023-05-18T18:37:43.173Z,15.24
2023-05-18T18:40:14.679Z,15.13
2023-05-18T18:42:45.020Z,15.02
2023-05-18T18:45:15.450Z,14.93
2023-05-18T18:47:45.549Z,14.82
2023-05-18T18:50:18.311Z,14.69
2023-05-18T18:52:48.358Z,14.61
2023-05-18T18:55:19.241Z,14.57
2023-05-18T18:57:49.749Z,14.47
2023-05-18T19:00:21.571Z,14.41
2023-05-18T19:02:54.844Z,14.39
2023-05-18T19:05:28.564Z,14.32
2023-05-18T19:07:58.684Z,14.27
2023-05-18T19:10:29.059Z,14.22
2023-05-18T19:13:00.266Z,14.17
2023-05-18T19:15:30.732Z,13.98
2023-05-18T19:18:01.151Z,14.05
2023-05-18T19:20:33.836Z,13.97
2023-05-18T19:23:05.004Z,13.83
2023-05-18T19:25:35.163Z,13.92
2023-05-18T19:28:05.286Z,13.86
2023-05-18T19:30:35.448Z,13.83
2023-05-18T19:33:06.913Z,13.80
2023-05-18T19:35:39.823Z,13.75
2023-05-18T19:38:10.047Z,13.70
2023-05-18T19:40:40.181Z,13.66
2023-05-18T19:43:10.989Z,13.59
2023-05-18T19:45:41.165Z,13.58
2023-05-18T19:48:11.458Z,13.55
2023-05-18T19:50:44.621Z,13.50
2023-05-18T19:53:17.181Z,13.46
2023-05-18T19:55:48.750Z,13.45
2023-05-18T19:58:19.137Z,13.29
2023-05-18T20:00:49.943Z,13.36
2023-05-18T20:03:20.492Z,13.29
2023-05-18T20:05:53.170Z,13.22
2023-05-18T20:08:23.546Z,13.21
2023-05-18T20:10:54.098Z,13.17
2023-05-18T20:13:24.260Z,13.14
2023-05-18T20:15:54.429Z,13.06
2023-05-18T20:18:26.188Z,13.06
2023-05-18T20:20:59.216Z,13.01
2023-05-18T20:23:29.647Z,12.98
2023-05-18T20:26:00.252Z,12.95
2023-05-18T20:28:31.735Z,12.91
2023-05-18T20:31:02.143Z,12.86
2023-05-18T20:33:34.453Z,12.80
2023-05-18T20:36:09.363Z,12.74
2023-05-18T20:38:39.456Z,12.67
2023-05-18T20:41:09.918Z,12.63
2023-05-18T20:43:40.482Z,12.52
2023-05-18T20:46:13.750Z,12.46
2023-05-18T20:48:44.865Z,12.41
2023-05-18T20:51:20.348Z,12.38
2023-05-18T20:53:51.989Z,12.34
2023-05-18T20:56:22.192Z,12.30
2023-05-18T20:58:52.539Z,12.19
2023-05-18T21:01:24.126Z,12.23
2023-05-18T21:03:54.548Z,12.17
2023-05-18T21:06:27.519Z,12.14
2023-05-18T21:08:57.613Z,12.08
2023-05-18T21:11:27.668Z,12.07
2023-05-18T21:13:57.793Z,12.05
2023-05-18T21:16:28.122Z,12.01
2023-05-18T21:18:58.398Z,11.98
2023-05-18T21:21:31.922Z,11.95
2023-05-18T21:24:02.081Z,11.92
2023-05-18T21:26:32.234Z,11.89
2023-05-18T21:29:02.287Z,11.84
2023-05-18T21:31:32.513Z,11.84
2023-05-18T21:34:02.775Z,11.79
2023-05-18T21:36:36.481Z,11.77
2023-05-18T21:39:09.516Z,11.69
2023-05-18T21:41:40.657Z,11.65
2023-05-18T21:44:11.408Z,11.61
2023-05-18T21:46:41.681Z,11.56
2023-05-18T21:49:12.730Z,11.52
2023-05-18T21:51:45.512Z,11.51
2023-05-18T21:54:15.719Z,11.46
2023-05-18T21:56:45.886Z,11.42
2023-05-18T21:59:16.141Z,11.39
2023-05-18T22:01:46.342Z,11.38
2023-05-18T22:04:16.499Z,11.34
2023-05-18T22:06:49.225Z,11.30
2023-05-18T22:09:19.353Z,11.20
2023-05-18T22:11:49.383Z,11.22
2023-05-18T22:14:19.535Z,11.19
2023-05-18T22:16:50.132Z,11.14
2023-05-18T22:19:20.348Z,11.09
2023-05-18T22:21:53.949Z,11.03
2023-05-18T22:24:24.121Z,10.97
2023-05-18T22:26:54.275Z,10.92
2023-05-18T22:29:24.378Z,10.87
2023-05-18T22:31:54.528Z,10.82
2023-05-18T22:34:24.923Z,10.78
2023-05-18T22:36:57.570Z,10.66
2023-05-18T22:39:28.031Z,10.71
2023-05-18T22:42:01.449Z,10.68
2023-05-18T22:44:34.709Z,10.63
2023-05-18T22:47:07.073Z,10.59
2023-05-18T22:49:37.098Z,10.54
2023-05-18T22:52:16.645Z,10.51
2023-05-18T22:54:48.822Z,10.49
2023-05-18T22:57:21.187Z,10.44
2023-05-18T22:59:53.577Z,10.41
2023-05-18T23:02:23.854Z,10.34
2023-05-18T23:04:54.058Z,10.31
2023-05-18T23:07:26.960Z,10.27
2023-05-18T23:09:57.892Z,10.23
2023-05-18T23:12:30.503Z,10.20
2023-05-18T23:15:02.864Z,10.18
2023-05-18T23:17:42.442Z,10.15
2023-05-18T23:20:15.692Z,10.13
2023-05-18T23:22:48.316Z,10.09
2023-05-18T23:25:18.755Z,10.06
2023-05-18T23:27:49.457Z,9.92
2023-05-18T23:30:19.978Z,10.06
2023-05-18T23:32:53.451Z,10.03
2023-05-18T23:35:24.181Z,10.04
2023-05-18T23:38:04.887Z,10.05
2023-05-18T23:40:36.207Z,9.80
2023-05-18T23:43:12.555Z,10.03
2023-05-18T23:45:43.242Z,10.02
2023-05-18T23:48:14.676Z,10.00
2023-05-18T23:50:46.775Z,9.96
2023-05-18T23:53:27.571Z,9.94
2023-05-18T23:56:00.176Z,9.93
2023-05-18T23:58:41.629Z,9.96
